Time;durP1;ratioP1;P1;durP2;ratioP2;P2;SDS_P1;SDS_P2;PMS_P1;PMS_P2;Temp;Humidity;BMP_temperature;BMP_pressure;BME280_temperature;BME280_humidity;BME280_pressure;Samples;Min_cycle;Max_cycle;Signal;HPM_P1;HPM_P2
2023/07/13 00:00:23;;;;;;;1.33;0.88;;;28.10;51.10;;;;;;4981039;28;20088;-66
2023/07/13 00:02:49;;;;;;;1.02;0.80;;;28.00;51.00;;;;;;4981490;28;20072;-66
2023/07/13 00:05:14;;;;;;;1.60;1.00;;;28.00;51.00;;;;;;4980511;28;20038;-66
2023/07/13 00:07:40;;;;;;;1.10;0.80;;;28.00;51.00;;;;;;4978699;28;20038;-66
2023/07/13 00:10:07;;;;;;;2.15;1.10;;;28.00;51.00;;;;;;4979911;28;20114;-66
2023/07/13 00:12:35;;;;;;;1.75;0.80;;;28.10;51.10;;;;;;4980590;28;20030;-66
2023/07/13 00:15:07;;;;;;;1.33;0.90;;;28.10;51.10;;;;;;4979390;28;20066;-66
2023/07/13 00:17:33;;;;;;;1.35;1.00;;;28.00;50.90;;;;;;4981290;28;20281;-66
2023/07/13 00:19:58;;;;;;;1.80;1.00;;;28.10;51.10;;;;;;4979924;28;20053;-66
2023/07/13 00:22:27;;;;;;;1.20;0.90;;;28.00;51.00;;;;;;4978588;28;20101;-66
2023/07/13 00:24:55;;;;;;;;;;;28.10;51.10;;;;;;4980938;28;20027;-66
2023/07/13 00:27:21;;;;;;;1.30;0.90;;;28.10;51.10;;;;;;4970239;28;19977;-66
2023/07/13 00:29:47;;;;;;;1.40;1.00;;;28.10;51.00;;;;;;4980786;28;20030;-66
2023/07/13 00:32:12;;;;;;;0.98;0.90;;;28.00;50.90;;;;;;4979987;28;20034;-66
2023/07/13 00:34:39;;;;;;;0.73;0.70;;;28.00;50.90;;;;;;4978940;28;20026;-66
2023/07/13 00:37:06;;;;;;;1.25;0.80;;;28.00;50.90;;;;;;4977906;28;20367;-66
2023/07/13 00:39:33;;;;;;;1.17;0.98;;;28.00;50.90;;;;;;4979079;28;20027;-66
2023/07/13 00:41:59;;;;;;;1.08;0.93;;;28.00;50.90;;;;;;4978566;28;20030;-66
2023/07/13 00:44:25;;;;;;;1.08;0.90;;;28.00;50.90;;;;;;4981760;28;20394;-66
2023/07/13 00:46:50;;;;;;;1.40;0.90;;;28.00;50.90;;;;;;4980052;28;20038;-66
2023/07/13 00:49:20;;;;;;;1.55;1.00;;;28.00;50.90;;;;;;4980598;28;20109;-66
2023/07/13 00:51:51;;;;;;;1.20;1.00;;;28.00;50.90;;;;;;4979910;28;20057;-65
2023/07/13 00:54:26;;;;;;;0.98;0.80;;;28.00;50.90;;;;;;4977365;28;20095;-66
2023/07/13 00:56:55;;;;;;;1.60;1.10;;;28.00;50.90;;;;;;4979788;28;21003;-66
2023/07/13 00:59:22;;;;;;;0.98;0.80;;;28.00;50.90;;;;;;4981081;28;20034;-66
2023/07/13 01:01:48;;;;;;;1.20;0.80;;;28.00;50.90;;;;;;4979426;28;20141;-66
2023/07/13 01:04:14;;;;;;;1.50;0.90;;;28.00;50.90;;;;;;4977685;28;20406;-66
2023/07/13 01:06:43;;;;;;;1.63;0.93;;;28.00;50.90;;;;;;4979868;28;20038;-66
2023/07/13 01:09:10;;;;;;;1.45;0.90;;;28.00;50.90;;;;;;4976972;28;20031;-66
2023/07/13 01:11:36;;;;;;;1.42;0.90;;;28.00;50.90;;;;;;4977088;28;20060;-66
2023/07/13 01:14:03;;;;;;;1.13;0.80;;;28.00;50.90;;;;;;4980532;28;20483;-66
2023/07/13 01:16:31;;;;;;;1.08;0.90;;;28.00;50.90;;;;;;4980797;28;20093;-66
2023/07/13 01:18:58;;;;;;;1.15;0.80;;;27.90;50.80;;;;;;4980932;28;20035;-66
2023/07/13 01:21:24;;;;;;;1.55;0.90;;;27.90;50.80;;;;;;4978794;28;20030;-66
2023/07/13 01:23:50;;;;;;;1.67;0.90;;;27.90;50.80;;;;;;4977120;28;20045;-66
2023/07/13 01:26:16;;;;;;;1.00;0.82;;;27.90;50.80;;;;;;4978343;28;20029;-66
2023/07/13 01:28:41;;;;;;;1.38;0.90;;;27.90;50.80;;;;;;4980099;28;20104;-66
2023/07/13 01:31:08;;;;;;;1.20;0.80;;;27.90;50.80;;;;;;4977807;28;20486;-65
2023/07/13 01:33:34;;;;;;;1.10;0.90;;;27.90;50.80;;;;;;4978266;28;20033;-66
2023/07/13 01:36:02;;;;;;;1.42;0.70;;;27.90;50.80;;;;;;4977950;28;20034;-67
2023/07/13 01:38:28;;;;;;;1.00;0.80;;;27.90;50.80;;;;;;4977982;28;20033;-67
2023/07/13 01:40:54;;;;;;;1.08;0.75;;;27.90;50.80;;;;;;4978111;28;20034;-66
2023/07/13 01:43:21;;;;;;;1.00;0.80;;;27.90;50.80;;;;;;4977786;28;20406;-66
2023/07/13 01:45:46;;;;;;;1.00;0.82;;;27.90;50.90;;;;;;4978142;28;20167;-67
2023/07/13 01:48:13;;;;;;;1.13;0.90;;;27.90;50.90;;;;;;4977882;28;20479;-67
2023/07/13 01:50:38;;;;;;;1.15;0.90;;;27.90;50.80;;;;;;4977211;28;20041;-67
2023/07/13 01:53:04;;;;;;;1.73;0.98;;;27.90;50.80;;;;;;4976481;28;20507;-66
2023/07/13 01:55:31;;;;;;;1.00;0.80;;;27.90;50.90;;;;;;4978483;28;20137;-67
2023/07/13 01:57:57;;;;;;;1.20;0.80;;;27.90;50.90;;;;;;4978674;28;20037;-66
2023/07/13 02:00:23;;;;;;;1.15;0.80;;;27.80;50.80;;;;;;4981170;28;20081;-67
2023/07/13 02:02:48;;;;;;;0.90;0.70;;;27.90;50.90;;;;;;4980048;28;20030;-67
2023/07/13 02:05:14;;;;;;;1.33;0.82;;;27.80;50.80;;;;;;4977530;28;20030;-67
2023/07/13 02:07:40;;;;;;;1.35;0.85;;;27.80;50.80;;;;;;4978701;28;20039;-67
2023/07/13 02:10:09;;;;;;;1.38;0.80;;;27.80;50.80;;;;;;4981592;28;20037;-66
2023/07/13 02:12:35;;;;;;;1.30;0.90;;;27.80;50.80;;;;;;4979768;28;20035;-67
2023/07/13 02:15:00;;;;;;;1.20;0.90;;;27.80;50.80;;;;;;4979167;28;20122;-66
2023/07/13 02:17:26;;;;;;;0.80;0.80;;;27.80;50.80;;;;;;4979914;28;20025;-66
2023/07/13 02:19:52;;;;;;;1.70;1.00;;;27.80;50.80;;;;;;4976816;28;20023;-67
2023/07/13 02:22:18;;;;;;;1.20;0.80;;;27.90;50.90;;;;;;4977072;28;20023;-66
2023/07/13 02:24:43;;;;;;;1.13;0.82;;;27.80;50.80;;;;;;4976116;28;20034;-67
2023/07/13 02:27:09;;;;;;;1.88;0.98;;;27.80;50.80;;;;;;4969264;28;20035;-68
2023/07/13 02:29:35;;;;;;;1.02;0.80;;;27.80;50.80;;;;;;4977358;28;20054;-66
2023/07/13 02:32:00;;;;;;;0.75;0.70;;;27.80;50.80;;;;;;4968747;28;20046;-67
2023/07/13 02:34:26;;;;;;;1.38;1.00;;;27.80;50.80;;;;;;4981190;28;20112;-66
2023/07/13 02:36:52;;;;;;;0.80;0.80;;;27.80;50.80;;;;;;4980562;28;20070;-66
2023/07/13 02:39:17;;;;;;;0.90;0.80;;;27.80;50.80;;;;;;4979452;28;20034;-66
2023/07/13 02:41:43;;;;;;;1.33;0.77;;;27.80;51.40;;;;;;4980380;28;20031;-65
2023/07/13 02:44:09;;;;;;;1.58;0.85;;;27.80;50.80;;;;;;4980244;28;20757;-65
2023/07/13 02:46:36;;;;;;;1.00;0.88;;;27.80;50.90;;;;;;4980880;28;20511;-66
2023/07/13 02:49:02;;;;;;;1.40;0.85;;;27.80;50.80;;;;;;4981440;28;20622;-67
2023/07/13 02:51:28;;;;;;;1.23;0.90;;;27.80;50.80;;;;;;4970876;28;20511;-67
2023/07/13 02:53:54;;;;;;;1.30;0.80;;;27.80;50.80;;;;;;4961135;28;20026;-66
2023/07/13 02:56:24;;;;;;;1.40;0.90;;;27.80;50.90;;;;;;4980790;28;20023;-66
2023/07/13 02:58:50;;;;;;;1.05;0.80;;;27.70;50.80;;;;;;4982057;28;20106;-66
2023/07/13 03:01:18;;;;;;;0.82;0.70;;;27.70;50.80;;;;;;4965974;28;20129;-66
2023/07/13 03:03:45;;;;;;;1.80;0.90;;;27.80;50.80;;;;;;4965276;28;20114;-66
2023/07/13 03:06:11;;;;;;;0.88;0.70;;;27.80;51.40;;;;;;4980319;28;20110;-66
2023/07/13 03:08:37;;;;;;;1.10;0.80;;;27.80;50.90;;;;;;4980427;28;20106;-66
2023/07/13 03:11:08;;;;;;;1.02;0.88;;;27.80;50.80;;;;;;4982119;28;20101;-66
2023/07/13 03:13:34;;;;;;;1.95;0.80;;;27.70;50.80;;;;;;4970714;28;20022;-66
2023/07/13 03:16:00;;;;;;;1.30;0.80;;;27.70;50.80;;;;;;4971447;28;20097;-66
2023/07/13 03:18:27;;;;;;;0.90;0.80;;;27.70;50.80;;;;;;4982133;28;20105;-65
2023/07/13 03:20:53;;;;;;;1.08;0.73;;;27.70;50.80;;;;;;4981644;28;20490;-66
2023/07/13 03:23:20;;;;;;;0.93;0.75;;;27.70;50.80;;;;;;4980628;28;20034;-66
2023/07/13 03:25:46;;;;;;;1.48;0.95;;;27.70;50.80;;;;;;4981077;28;20110;-66
2023/07/13 03:28:12;;;;;;;0.93;0.80;;;27.70;50.80;;;;;;4981506;28;20026;-66
2023/07/13 03:30:38;;;;;;;1.20;0.90;;;27.70;50.80;;;;;;4981776;28;20035;-66
2023/07/13 03:33:04;;;;;;;0.82;0.70;;;27.70;50.80;;;;;;4981484;28;20386;-66
2023/07/13 03:35:29;;;;;;;0.73;0.70;;;27.70;50.80;;;;;;4982157;28;20046;-66
2023/07/13 03:37:56;;;;;;;1.00;0.90;;;27.70;50.80;;;;;;4980737;28;20151;-66
2023/07/13 03:40:22;;;;;;;1.02;0.80;;;27.70;50.80;;;;;;4980157;28;20018;-66
2023/07/13 03:42:48;;;;;;;1.10;0.80;;;27.70;50.80;;;;;;4980610;28;20042;-66
2023/07/13 03:45:13;;;;;;;1.08;0.80;;;27.70;50.70;;;;;;4965024;28;20110;-66
2023/07/13 03:47:39;;;;;;;1.00;0.77;;;27.70;50.80;;;;;;4979809;28;20126;-66
2023/07/13 03:50:05;;;;;;;1.13;0.80;;;27.70;50.80;;;;;;4978842;28;20340;-66
2023/07/13 03:52:31;;;;;;;1.08;0.70;;;27.70;50.80;;;;;;4980645;28;20133;-66
2023/07/13 03:54:56;;;;;;;1.13;0.80;;;27.70;50.80;;;;;;4970556;28;20558;-66
2023/07/13 03:57:22;;;;;;;1.20;0.90;;;27.70;50.70;;;;;;4982695;28;20048;-66
2023/07/13 03:59:48;;;;;;;1.92;1.20;;;27.70;50.70;;;;;;4979152;28;20023;-67
2023/07/13 04:02:14;;;;;;;2.97;1.60;;;27.70;49.50;;;;;;4979532;28;20536;-67
2023/07/13 04:04:40;;;;;;;2.60;1.50;;;27.60;49.30;;;;;;4980664;28;20038;-66
2023/07/13 04:07:08;;;;;;;3.80;1.40;;;27.60;49.40;;;;;;4981025;28;20347;-66
2023/07/13 04:09:34;;;;;;;2.35;1.52;;;27.60;49.40;;;;;;4978156;28;20026;-66
2023/07/13 04:11:59;;;;;;;3.05;1.50;;;27.70;49.20;;;;;;4964998;28;20506;-67
2023/07/13 04:14:25;;;;;;;2.65;1.50;;;27.60;48.90;;;;;;4980503;28;20034;-66
2023/07/13 04:16:51;;;;;;;2.88;1.30;;;27.60;48.80;;;;;;4980868;28;20018;-66
2023/07/13 04:19:17;;;;;;;3.70;1.50;;;27.60;48.70;;;;;;4966000;28;20030;-67
2023/07/13 04:21:42;;;;;;;3.20;1.20;;;27.60;48.70;;;;;;4981666;28;20054;-66
2023/07/13 04:24:08;;;;;;;1.95;1.30;;;27.50;48.60;;;;;;4977901;28;20475;-66
2023/07/13 04:26:36;;;;;;;3.92;1.50;;;27.60;48.40;;;;;;4980113;28;20030;-67
2023/07/13 04:29:03;;;;;;;2.97;1.40;;;27.50;48.30;;;;;;4962195;28;20052;-67
2023/07/13 04:31:29;;;;;;;2.92;1.30;;;27.50;48.10;;;;;;4981742;28;20419;-66
2023/07/13 04:33:55;;;;;;;2.05;1.20;;;27.50;48.00;;;;;;4978704;28;20061;-66
2023/07/13 04:36:20;;;;;;;2.17;1.27;;;27.50;48.10;;;;;;4976407;28;20027;-67
2023/07/13 04:38:46;;;;;;;4.88;1.70;;;27.40;47.90;;;;;;4979467;28;20022;-68
2023/07/13 04:41:14;;;;;;;3.13;1.30;;;27.40;47.90;;;;;;4980163;28;20026;-67
2023/07/13 04:43:40;;;;;;;4.20;1.30;;;27.40;48.00;;;;;;4977829;28;20594;-66
2023/07/13 04:46:08;;;;;;;3.60;1.30;;;27.40;47.90;;;;;;4982247;28;20196;-66
2023/07/13 04:48:34;;;;;;;2.90;1.50;;;27.40;48.10;;;;;;4981327;28;20026;-67
2023/07/13 04:51:00;;;;;;;3.88;1.50;;;27.30;47.90;;;;;;4980096;28;20244;-68
2023/07/13 04:53:26;;;;;;;2.33;1.38;;;27.30;48.00;;;;;;4960840;28;20445;-68
2023/07/13 04:55:52;;;;;;;2.47;1.20;;;27.30;48.10;;;;;;4967426;28;20056;-67
2023/07/13 04:58:18;;;;;;;2.05;1.20;;;27.30;48.10;;;;;;4978972;28;20050;-66
2023/07/13 05:00:43;;;;;;;2.17;1.27;;;27.30;48.10;;;;;;4981175;28;20061;-66
2023/07/13 05:03:09;;;;;;;3.78;1.30;;;27.20;47.90;;;;;;4978804;28;20043;-66
2023/07/13 05:05:35;;;;;;;2.30;1.23;;;27.20;47.80;;;;;;4979327;28;20070;-67
2023/07/13 05:08:01;;;;;;;4.07;1.20;;;27.20;47.50;;;;;;4979804;28;20046;-66
2023/07/13 05:10:27;;;;;;;2.97;1.40;;;27.10;47.50;;;;;;4978353;28;20106;-67
2023/07/13 05:12:53;;;;;;;2.25;1.10;;;27.10;47.20;;;;;;4978411;28;20126;-66
2023/07/13 05:15:21;;;;;;;1.40;1.00;;;27.10;47.30;;;;;;4979669;28;20496;-66
2023/07/13 05:17:48;;;;;;;1.98;1.13;;;27.10;47.30;;;;;;4978752;28;20513;-67
2023/07/13 05:20:15;;;;;;;2.72;1.20;;;27.10;47.30;;;;;;4980036;28;20038;-68
2023/07/13 05:22:41;;;;;;;3.10;1.27;;;27.00;47.10;;;;;;4976812;28;20058;-66
2023/07/13 05:25:08;;;;;;;4.07;1.50;;;27.00;47.10;;;;;;4976533;28;20034;-67
2023/07/13 05:27:34;;;;;;;3.28;1.58;;;27.00;47.10;;;;;;4980106;28;20030;-66
2023/07/13 05:30:01;;;;;;;1.83;1.05;;;26.90;47.20;;;;;;4978640;28;20474;-66
2023/07/13 05:32:26;;;;;;;2.28;1.20;;;26.90;47.40;;;;;;4976287;28;20548;-66
2023/07/13 05:34:52;;;;;;;2.67;1.10;;;26.90;47.60;;;;;;4977470;28;20106;-65
2023/07/13 05:37:18;;;;;;;4.82;1.60;;;26.80;47.80;;;;;;4978236;28;20467;-66
2023/07/13 05:39:43;;;;;;;5.10;1.67;;;26.80;47.70;;;;;;4959720;28;20101;-66
2023/07/13 05:42:09;;;;;;;1.98;1.10;;;26.80;47.80;;;;;;4978654;28;20030;-66
2023/07/13 05:44:35;;;;;;;2.67;1.30;;;26.80;47.90;;;;;;4978922;28;20035;-67
2023/07/13 05:47:00;;;;;;;2.70;1.20;;;26.80;48.00;;;;;;4963698;28;20042;-66
2023/07/13 05:49:26;;;;;;;2.97;1.10;;;26.80;47.90;;;;;;4978869;28;20402;-66
2023/07/13 05:51:51;;;;;;;1.75;1.10;;;26.80;47.90;;;;;;4968333;28;20030;-66
2023/07/13 05:54:17;;;;;;;3.20;1.40;;;26.80;47.80;;;;;;4977814;28;20099;-65
2023/07/13 05:56:43;;;;;;;5.78;1.40;;;26.70;47.50;;;;;;4977429;28;20462;-70
2023/07/13 05:59:08;;;;;;;3.90;1.42;;;26.70;48.00;;;;;;4962292;28;20047;-68
2023/07/13 06:01:34;;;;;;;4.70;1.67;;;26.70;48.20;;;;;;4980012;28;20108;-68
2023/07/13 06:04:00;;;;;;;2.47;1.40;;;26.70;48.80;;;;;;4964195;28;20037;-68
2023/07/13 06:06:25;;;;;;;3.13;1.42;;;26.70;48.40;;;;;;4979197;28;20146;-68
2023/07/13 06:08:51;;;;;;;3.28;1.33;;;26.70;48.40;;;;;;4979880;28;20023;-69
2023/07/13 06:11:19;;;;;;;3.38;1.30;;;26.70;48.40;;;;;;4981505;28;20542;-68
2023/07/13 06:13:45;;;;;;;2.45;1.20;;;26.70;48.50;;;;;;4982247;28;20027;-67
2023/07/13 06:16:12;;;;;;;4.15;1.10;;;26.70;48.50;;;;;;4966469;28;20522;-67
2023/07/13 06:18:41;;;;;;;2.40;1.13;;;26.80;48.80;;;;;;4980542;28;20181;-69
2023/07/13 06:21:09;;;;;;;1.83;1.10;;;26.80;49.00;;;;;;4983942;28;20407;-68
2023/07/13 06:23:34;;;;;;;1.83;1.15;;;26.80;49.00;;;;;;4971346;28;20565;-69
2023/07/13 06:26:00;;;;;;;3.05;1.50;;;26.90;49.10;;;;;;4981783;28;20092;-68
2023/07/13 06:28:26;;;;;;;2.25;1.27;;;26.90;49.10;;;;;;4961945;28;20029;-70
2023/07/13 06:30:52;;;;;;;2.40;1.17;;;26.90;49.10;;;;;;4983816;28;20030;-68
2023/07/13 06:33:17;;;;;;;1.75;1.13;;;27.00;49.10;;;;;;4979787;28;20066;-69
2023/07/13 06:35:43;;;;;;;2.13;1.10;;;27.00;49.20;;;;;;4982331;28;20018;-68
2023/07/13 06:38:08;;;;;;;2.83;1.10;;;27.00;49.10;;;;;;4981073;28;20102;-66
2023/07/13 06:40:35;;;;;;;2.25;1.23;;;27.00;49.10;;;;;;4979325;28;20140;-70
2023/07/13 06:43:01;;;;;;;2.10;1.10;;;27.10;49.10;;;;;;4981967;28;20501;-68
2023/07/13 06:45:26;;;;;;;3.10;1.20;;;27.10;49.00;;;;;;4965755;28;20033;-66
2023/07/13 06:47:52;;;;;;;2.53;1.25;;;27.10;48.90;;;;;;4980944;28;20035;-69
2023/07/13 06:50:18;;;;;;;2.00;1.20;;;27.10;48.80;;;;;;4981727;28;20041;-69
2023/07/13 06:52:43;;;;;;;2.22;1.10;;;27.20;49.00;;;;;;4981705;28;20034;-66
2023/07/13 06:55:09;;;;;;;1.50;1.02;;;27.20;49.10;;;;;;4978622;28;20019;-69
2023/07/13 06:57:34;;;;;;;1.92;1.00;;;27.20;49.10;;;;;;4981521;28;20149;-69
2023/07/13 07:00:00;;;;;;;2.08;1.00;;;27.30;49.10;;;;;;4982031;28;20569;-69
2023/07/13 07:02:26;;;;;;;1.65;1.10;;;27.30;49.10;;;;;;4965896;28;20034;-69
2023/07/13 07:04:51;;;;;;;2.35;1.10;;;27.30;49.30;;;;;;4980409;28;20035;-69
2023/07/13 07:07:17;;;;;;;1.98;1.08;;;27.30;49.10;;;;;;4980153;28;20023;-69
2023/07/13 07:09:42;;;;;;;1.88;1.05;;;27.40;49.20;;;;;;4980538;28;20487;-67
2023/07/13 07:12:08;;;;;;;2.20;1.00;;;27.40;49.10;;;;;;4978845;28;20030;-68
2023/07/13 07:14:34;;;;;;;2.03;1.10;;;27.40;49.00;;;;;;4980301;28;20034;-69
2023/07/13 07:17:00;;;;;;;2.20;1.35;;;27.40;49.20;;;;;;4982183;28;20033;-71
2023/07/13 07:19:26;;;;;;;1.63;0.95;;;27.40;49.20;;;;;;4980452;28;20019;-68
2023/07/13 07:21:51;;;;;;;2.28;1.20;;;27.50;49.30;;;;;;4981349;28;20037;-68
2023/07/13 07:24:17;;;;;;;1.80;1.10;;;27.50;49.20;;;;;;4981534;28;20038;-67
2023/07/13 07:26:43;;;;;;;1.83;1.10;;;27.50;49.20;;;;;;4965638;28;20034;-69
2023/07/13 07:29:08;;;;;;;2.25;1.10;;;27.50;49.10;;;;;;4981866;28;20042;-68
2023/07/13 07:31:34;;;;;;;1.98;1.20;;;27.60;48.80;;;;;;4981631;28;20479;-70
2023/07/13 07:34:00;;;;;;;2.03;1.05;;;27.50;48.70;;;;;;4980604;28;20033;-68
2023/07/13 07:36:25;;;;;;;1.85;1.08;;;27.60;48.60;;;;;;4982140;28;20031;-69
2023/07/13 07:38:51;;;;;;;2.30;1.30;;;27.60;48.60;;;;;;4981197;28;20488;-69
2023/07/13 07:41:16;;;;;;;1.77;1.10;;;27.60;48.50;;;;;;4980742;28;20035;-69
2023/07/13 07:43:42;;;;;;;1.85;1.10;;;27.60;48.50;;;;;;4980678;28;20463;-67
2023/07/13 07:46:07;;;;;;;2.38;1.13;;;27.60;48.60;;;;;;4982264;28;20367;-67
2023/07/13 07:48:33;;;;;;;1.33;0.98;;;27.60;48.40;;;;;;4982305;28;20030;-67
2023/07/13 07:50:59;;;;;;;1.63;1.20;;;27.60;48.30;;;;;;4980003;28;20073;-67
2023/07/13 07:53:24;;;;;;;1.95;1.05;;;27.70;48.30;;;;;;4977674;28;20030;-67
2023/07/13 07:55:51;;;;;;;2.60;1.15;;;27.70;48.20;;;;;;4979296;28;20027;-66
2023/07/13 07:58:17;;;;;;;2.05;1.05;;;27.70;48.10;;;;;;4966623;28;20395;-68
2023/07/13 08:00:42;;;;;;;1.83;1.05;;;27.70;48.10;;;;;;4980420;28;20034;-67
2023/07/13 08:03:08;;;;;;;1.80;1.10;;;27.70;48.10;;;;;;4971586;28;20113;-67
2023/07/13 08:05:36;;;;;;;1.90;1.10;;;27.70;48.10;;;;;;4979539;28;20038;-67
2023/07/13 08:08:02;;;;;;;1.63;0.88;;;27.70;48.10;;;;;;4979696;28;20039;-66
2023/07/13 08:10:27;;;;;;;2.03;1.00;;;27.80;48.20;;;;;;4979128;28;20049;-67
2023/07/13 08:12:53;;;;;;;1.38;1.00;;;27.80;48.20;;;;;;4978228;28;20031;-66
2023/07/13 08:15:20;;;;;;;2.03;1.00;;;27.80;48.20;;;;;;4978509;28;20475;-67
2023/07/13 08:17:47;;;;;;;2.00;1.10;;;27.80;48.10;;;;;;4979550;28;20069;-65
2023/07/13 08:20:13;;;;;;;1.70;1.00;;;27.80;48.10;;;;;;4978961;28;20430;-66
2023/07/13 08:22:39;;;;;;;1.80;1.02;;;27.80;48.10;;;;;;4978898;28;20061;-67
2023/07/13 08:25:05;;;;;;;1.25;0.90;;;27.80;48.10;;;;;;4979937;28;20030;-66
2023/07/13 08:27:30;;;;;;;1.88;1.10;;;27.90;48.10;;;;;;4976607;28;20411;-67
2023/07/13 08:29:56;;;;;;;2.28;1.30;;;27.80;48.10;;;;;;4977676;28;20038;-67
2023/07/13 08:32:23;;;;;;;1.33;1.00;;;27.90;48.20;;;;;;4971372;28;20569;-68
2023/07/13 08:34:49;;;;;;;1.83;1.00;;;27.90;48.20;;;;;;4978801;28;20760;-68
2023/07/13 08:37:16;;;;;;;1.48;0.98;;;27.90;48.20;;;;;;4978183;28;20041;-68
2023/07/13 08:39:42;;;;;;;2.00;1.20;;;27.90;48.10;;;;;;4980430;28;20109;-66
2023/07/13 08:42:32;;;;;;;3.25;1.00;;;27.90;48.10;;;;;;4963533;28;20180;-66
2023/07/13 08:45:08;;;;;;;2.22;1.20;;;27.90;48.10;;;;;;4950013;28;20046;-67
2023/07/13 08:47:38;;;;;;;2.75;1.27;;;27.90;48.10;;;;;;4963152;28;20034;-68
2023/07/13 08:50:04;;;;;;;1.58;1.15;;;28.00;48.20;;;;;;4978780;28;20026;-68
2023/07/13 08:52:37;;;;;;;1.73;0.90;;;28.00;48.20;;;;;;4978887;28;20078;-67
2023/07/13 08:55:13;;;;;;;1.52;0.80;;;28.00;48.10;;;;;;4978018;28;20455;-67
2023/07/13 08:57:41;;;;;;;1.33;0.90;;;28.00;48.10;;;;;;4966770;28;20038;-67
2023/07/13 09:00:11;;;;;;;1.30;0.85;;;28.00;48.10;;;;;;4962551;28;20027;-67
2023/07/13 09:02:57;;;;;;;1.80;1.10;;;28.00;48.10;;;;;;4981356;28;20060;-67
2023/07/13 09:05:32;;;;;;;1.13;0.90;;;28.00;48.10;;;;;;4978475;28;20074;-67
2023/07/13 09:08:12;;;;;;;1.65;1.20;;;28.00;48.00;;;;;;4977363;28;20390;-68
2023/07/13 09:10:48;;;;;;;1.45;1.00;;;28.00;48.10;;;;;;4978651;28;20061;-68
2023/07/13 09:13:48;;;;;;;1.77;0.90;;;28.10;48.50;;;;;;4960329;28;20034;-62
2023/07/13 09:16:13;;;;;;;1.80;1.10;;;28.10;48.60;;;;;;4979338;28;20482;-63
2023/07/13 09:18:46;;;;;;;2.33;0.90;;;28.10;48.50;;;;;;4980567;28;20080;-62
2023/07/13 09:21:29;;;;;;;1.52;1.00;;;28.10;48.60;;;;;;4961010;28;20057;-62
2023/07/13 09:24:19;;;;;;;1.55;1.00;;;28.20;48.60;;;;;;4978706;28;20030;-62
2023/07/13 09:26:45;;;;;;;1.60;0.93;;;28.20;48.40;;;;;;4937616;28;20049;-61
2023/07/13 09:29:28;;;;;;;1.55;1.02;;;28.20;48.40;;;;;;4980251;28;20057;-62
2023/07/13 09:31:58;;;;;;;1.10;0.80;;;28.20;48.70;;;;;;4961808;28;20035;-62
2023/07/13 09:34:25;;;;;;;1.17;0.90;;;28.20;48.60;;;;;;4978992;28;20033;-61
2023/07/13 09:36:51;;;;;;;1.27;0.80;;;28.20;48.60;;;;;;4979772;28;20061;-62
2023/07/13 09:39:55;;;;;;;1.25;0.85;;;28.20;48.40;;;;;;4978791;28;20112;-63
2023/07/13 09:42:22;;;;;;;1.58;0.90;;;28.30;48.40;;;;;;4939183;28;20042;-62
2023/07/13 09:44:56;;;;;;;2.20;0.90;;;28.30;48.40;;;;;;4976624;28;20023;-63
2023/07/13 09:47:26;;;;;;;1.35;0.90;;;28.30;48.40;;;;;;4980324;28;20143;-63
2023/07/13 09:50:04;;;;;;;2.10;1.02;;;28.30;48.40;;;;;;4980066;28;20023;-61
2023/07/13 09:52:52;;;;;;;1.10;1.00;;;28.30;48.30;;;;;;4976802;28;20034;-62
2023/07/13 09:55:34;;;;;;;1.42;0.90;;;28.40;48.30;;;;;;4977499;28;20026;-61
2023/07/13 09:58:22;;;;;;;1.40;0.88;;;28.40;48.30;;;;;;4976602;28;20030;-62
2023/07/13 10:01:04;;;;;;;1.73;0.90;;;28.40;48.20;;;;;;4979988;28;20081;-61
2023/07/13 10:03:37;;;;;;;1.17;0.80;;;28.40;48.20;;;;;;4978373;28;20039;-63
2023/07/13 10:06:23;;;;;;;1.40;0.90;;;28.50;48.30;;;;;;4962059;28;20026;-62
2023/07/13 10:08:53;;;;;;;2.75;0.90;;;28.50;48.20;;;;;;4963115;28;20077;-62
2023/07/13 10:11:22;;;;;;;3.50;0.98;;;28.50;48.20;;;;;;4976266;28;20026;-62
2023/07/13 10:13:55;;;;;;;;;;;28.50;48.00;;;;;;4968584;28;20034;-62
2023/07/13 10:16:22;;;;;;;1.52;1.00;;;28.50;47.80;;;;;;4977218;28;20304;-62
2023/07/13 10:19:02;;;;;;;1.70;0.85;;;28.60;47.70;;;;;;4979318;28;20097;-62
2023/07/13 10:21:38;;;;;;;1.58;1.05;;;28.50;47.40;;;;;;4959929;28;20026;-61
2023/07/13 10:24:18;;;;;;;1.38;0.90;;;28.50;47.30;;;;;;4978670;28;20026;-62
2023/07/13 10:26:55;;;;;;;1.85;0.95;;;28.60;47.30;;;;;;4977374;28;20489;-62
2023/07/13 10:29:23;;;;;;;1.77;0.90;;;28.60;47.30;;;;;;4977723;28;20030;-61
2023/07/13 10:31:50;;;;;;;1.45;0.90;;;28.60;47.30;;;;;;4980402;28;20098;-63
2023/07/13 10:34:16;;;;;;;1.15;0.80;;;28.60;47.50;;;;;;4979916;28;20569;-62
2023/07/13 10:36:48;;;;;;;2.03;0.93;;;28.60;47.70;;;;;;4964426;28;20018;-61
2023/07/13 10:39:26;;;;;;;1.48;0.90;;;28.60;47.80;;;;;;4980205;28;20030;-62
2023/07/13 10:41:59;;;;;;;1.30;0.90;;;28.60;47.80;;;;;;4968003;28;20451;-62
2023/07/13 10:44:29;;;;;;;0.95;0.73;;;28.60;48.10;;;;;;4982494;28;20061;-65
2023/07/13 10:47:06;;;;;;;4.60;0.90;;;28.70;48.20;;;;;;4978754;28;20057;-62
2023/07/13 10:49:35;;;;;;;1.27;0.85;;;28.70;48.20;;;;;;4979890;28;20038;-63
2023/07/13 10:52:01;;;;;;;1.85;0.80;;;28.70;48.20;;;;;;4977838;28;20465;-62
2023/07/13 10:54:29;;;;;;;1.35;0.80;;;28.70;48.40;;;;;;4980200;28;20031;-63
2023/07/13 10:57:18;;;;;;;1.63;0.88;;;28.70;48.60;;;;;;4980831;28;20053;-64
2023/07/13 11:00:08;;;;;;;2.33;0.90;;;28.70;48.40;;;;;;4983737;28;20039;-64
2023/07/13 11:02:34;;;;;;;1.80;0.90;;;28.80;48.70;;;;;;4982882;28;20474;-63
2023/07/13 11:05:25;;;;;;;2.25;0.93;;;28.80;48.80;;;;;;4981631;28;20046;-63
2023/07/13 11:08:20;;;;;;;1.48;0.70;;;28.80;48.60;;;;;;4981575;28;20060;-62
2023/07/13 11:10:56;;;;;;;1.17;0.80;;;28.80;48.40;;;;;;4981704;28;20125;-63
2023/07/13 11:13:50;;;;;;;1.85;0.75;;;28.80;48.60;;;;;;4981503;28;20414;-62
2023/07/13 11:16:15;;;;;;;1.25;0.88;;;28.80;48.60;;;;;;4981289;28;20030;-63
2023/07/13 11:18:48;;;;;;;1.00;0.70;;;28.80;49.10;;;;;;4981309;28;20045;-63
2023/07/13 11:21:17;;;;;;;3.33;0.80;;;28.90;48.80;;;;;;4961541;28;20147;-63
2023/07/13 11:23:47;;;;;;;1.63;0.80;;;28.90;49.30;;;;;;4982698;28;20038;-62
2023/07/13 11:26:38;;;;;;;1.05;0.82;;;28.90;48.90;;;;;;4980054;28;20034;-63
2023/07/13 11:29:25;;;;;;;1.40;0.80;;;28.90;49.60;;;;;;4976400;28;20602;-64
2023/07/13 11:31:53;;;;;;;1.90;0.98;;;28.90;49.50;;;;;;4980360;28;20031;-62
2023/07/13 11:34:38;;;;;;;1.35;0.70;;;28.90;49.30;;;;;;4982841;28;20146;-64
2023/07/13 11:37:12;;;;;;;1.10;0.70;;;29.00;49.50;;;;;;4979510;28;20026;-64
2023/07/13 11:39:42;;;;;;;0.90;0.70;;;29.00;49.50;;;;;;4981412;28;20018;-63
2023/07/13 11:42:15;;;;;;;1.58;0.70;;;29.00;49.40;;;;;;4980035;28;20038;-64
2023/07/13 11:44:43;;;;;;;2.47;0.80;;;29.00;49.70;;;;;;4971699;28;20034;-64
2023/07/13 11:47:21;;;;;;;1.48;0.80;;;29.00;49.50;;;;;;4982459;28;20531;-64
2023/07/13 11:49:56;;;;;;;1.38;0.70;;;29.00;49.60;;;;;;4981555;28;20548;-63
2023/07/13 11:52:28;;;;;;;1.10;0.80;;;29.00;49.80;;;;;;4981202;28;20081;-64
2023/07/13 11:55:00;;;;;;;2.00;0.80;;;29.10;49.60;;;;;;4981078;28;20027;-63
2023/07/13 11:57:35;;;;;;;1.67;0.70;;;29.00;50.10;;;;;;4980358;28;20022;-64
2023/07/13 12:00:10;;;;;;;1.15;0.80;;;29.10;50.00;;;;;;4980270;28;20106;-62
2023/07/13 12:02:40;;;;;;;1.90;0.93;;;29.10;50.00;;;;;;4981826;28;20034;-64
2023/07/13 12:05:09;;;;;;;1.52;0.80;;;29.10;49.60;;;;;;4963431;28;20027;-62
2023/07/13 12:07:38;;;;;;;1.58;0.80;;;29.10;50.00;;;;;;4962103;28;20471;-67
2023/07/13 12:10:29;;;;;;;1.27;0.80;;;29.20;50.40;;;;;;4970448;28;20466;-62
2023/07/13 12:13:03;;;;;;;3.20;1.10;;;29.20;50.30;;;;;;4978822;28;20489;-63
2023/07/13 12:15:44;;;;;;;1.08;0.70;;;29.20;50.10;;;;;;4981158;28;20029;-62
2023/07/13 12:18:14;;;;;;;1.35;0.75;;;29.20;49.20;;;;;;4978032;28;20037;-62
2023/07/13 12:20:40;;;;;;;1.58;0.88;;;29.20;48.80;;;;;;4968540;28;20140;-63
2023/07/13 12:23:16;;;;;;;0.73;0.70;;;29.10;48.50;;;;;;4966725;28;21024;-66
2023/07/13 12:25:43;;;;;;;1.42;0.80;;;29.10;48.20;;;;;;4963924;28;20137;-66
2023/07/13 12:28:34;;;;;;;1.13;0.80;;;29.20;48.60;;;;;;4976886;28;20030;-67
2023/07/13 12:31:23;;;;;;;0.90;0.68;;;29.20;48.80;;;;;;4980870;28;20505;-67
2023/07/13 12:34:00;;;;;;;1.48;0.80;;;29.20;48.80;;;;;;4980320;28;20093;-67
2023/07/13 12:36:26;;;;;;;1.10;0.80;;;29.30;48.80;;;;;;4962866;28;20042;-67
2023/07/13 12:38:52;;;;;;;0.95;0.70;;;29.20;48.70;;;;;;4968736;28;20430;-67
2023/07/13 12:41:18;;;;;;;1.00;0.77;;;29.20;48.60;;;;;;4979755;28;20061;-66
2023/07/13 12:43:45;;;;;;;0.93;0.73;;;29.30;48.60;;;;;;4968057;28;20050;-67
2023/07/13 12:46:21;;;;;;;3.63;0.90;;;29.30;48.60;;;;;;4979074;28;20533;-66
2023/07/13 12:48:54;;;;;;;1.00;0.70;;;29.30;48.60;;;;;;4964450;28;20545;-69
2023/07/13 12:51:25;;;;;;;1.10;0.70;;;29.30;48.60;;;;;;4979371;28;20031;-68
2023/07/13 12:54:04;;;;;;;1.40;0.80;;;29.30;48.60;;;;;;4977927;28;20501;-68
2023/07/13 12:56:33;;;;;;;1.13;0.70;;;29.30;48.60;;;;;;4978591;28;20086;-68